sensor_id;sensor_type;location;lat;lon;timestamp;temperature;humidity
28484;DHT22;15704;48.834;8.736;2023-02-21T00:00:37;7.50;99.90
28484;DHT22;15704;48.834;8.736;2023-02-21T00:03:22;7.40;99.90
28484;DHT22;15704;48.834;8.736;2023-02-21T00:06:08;7.30;99.90
28484;DHT22;15704;48.834;8.736;2023-02-21T00:08:54;7.20;99.90
28484;DHT22;15704;48.834;8.736;2023-02-21T00:11:42;7.20;99.90
28484;DHT22;15704;48.834;8.736;2023-02-21T00:14:28;7.10;99.90
28484;DHT22;15704;48.834;8.736;2023-02-21T00:17:13;7.10;99.90
28484;DHT22;15704;48.834;8.736;2023-02-21T00:19:59;7.00;99.90
28484;DHT22;15704;48.834;8.736;2023-02-21T00:22:45;6.90;99.90
28484;DHT22;15704;48.834;8.736;2023-02-21T00:25:30;6.90;99.90
28484;DHT22;15704;48.834;8.736;2023-02-21T00:28:15;6.80;99.90
28484;DHT22;15704;48.834;8.736;2023-02-21T00:31:01;6.80;99.90
28484;DHT22;15704;48.834;8.736;2023-02-21T00:33:47;6.80;99.90
28484;DHT22;15704;48.834;8.736;2023-02-21T00:36:32;6.80;99.90
28484;DHT22;15704;48.834;8.736;2023-02-21T00:39:18;6.90;99.90
28484;DHT22;15704;48.834;8.736;2023-02-21T00:42:03;6.80;99.90
28484;DHT22;15704;48.834;8.736;2023-02-21T00:44:49;6.90;99.90
28484;DHT22;15704;48.834;8.736;2023-02-21T00:47:34;6.90;99.90
28484;DHT22;15704;48.834;8.736;2023-02-21T00:50:20;6.90;99.90
28484;DHT22;15704;48.834;8.736;2023-02-21T00:53:06;6.80;99.90
28484;DHT22;15704;48.834;8.736;2023-02-21T00:55:51;6.80;99.90
28484;DHT22;15704;48.834;8.736;2023-02-21T00:58:37;6.80;99.90
28484;DHT22;15704;48.834;8.736;2023-02-21T01:01:22;6.80;99.90
28484;DHT22;15704;48.834;8.736;2023-02-21T01:04:10;6.80;99.90
28484;DHT22;15704;48.834;8.736;2023-02-21T01:06:56;6.90;99.90
28484;DHT22;15704;48.834;8.736;2023-02-21T01:09:44;6.90;99.90
28484;DHT22;15704;48.834;8.736;2023-02-21T01:12:29;7.00;99.90
28484;DHT22;15704;48.834;8.736;2023-02-21T01:15:17;7.00;99.90
28484;DHT22;15704;48.834;8.736;2023-02-21T01:18:03;7.10;99.90
28484;DHT22;15704;48.834;8.736;2023-02-21T01:20:49;7.20;99.90
28484;DHT22;15704;48.834;8.736;2023-02-21T01:23:40;7.20;99.90
28484;DHT22;15704;48.834;8.736;2023-02-21T01:26:32;7.20;99.90
28484;DHT22;15704;48.834;8.736;2023-02-21T01:29:20;7.20;99.90
28484;DHT22;15704;48.834;8.736;2023-02-21T01:32:13;7.20;99.90
28484;DHT22;15704;48.834;8.736;2023-02-21T01:35:08;7.30;99.90
28484;DHT22;15704;48.834;8.736;2023-02-21T01:37:53;7.20;99.90
28484;DHT22;15704;48.834;8.736;2023-02-21T01:40:39;7.20;99.90
28484;DHT22;15704;48.834;8.736;2023-02-21T01:43:26;7.30;99.90
28484;DHT22;15704;48.834;8.736;2023-02-21T01:46:14;7.20;99.90
28484;DHT22;15704;48.834;8.736;2023-02-21T01:49:07;7.30;99.90
28484;DHT22;15704;48.834;8.736;2023-02-21T01:51:53;7.20;99.90
28484;DHT22;15704;48.834;8.736;2023-02-21T01:54:43;7.40;99.90
28484;DHT22;15704;48.834;8.736;2023-02-21T01:57:32;7.50;99.90
28484;DHT22;15704;48.834;8.736;2023-02-21T02:00:30;7.50;99.90
28484;DHT22;15704;48.834;8.736;2023-02-21T02:03:22;7.40;99.90
28484;DHT22;15704;48.834;8.736;2023-02-21T02:06:16;7.40;99.90
28484;DHT22;15704;48.834;8.736;2023-02-21T02:09:21;7.60;99.90
28484;DHT22;15704;48.834;8.736;2023-02-21T02:29:21;7.30;99.90
28484;DHT22;15704;48.834;8.736;2023-02-21T02:40:34;7.10;99.90
28484;DHT22;15704;48.834;8.736;2023-02-21T02:43:34;7.30;99.90
28484;DHT22;15704;48.834;8.736;2023-02-21T02:46:07;7.20;99.90
28484;DHT22;15704;48.834;8.736;2023-02-21T02:48:43;7.30;99.90
28484;DHT22;15704;48.834;8.736;2023-02-21T02:51:20;7.20;99.90
28484;DHT22;15704;48.834;8.736;2023-02-21T02:54:04;7.30;99.90
28484;DHT22;15704;48.834;8.736;2023-02-21T02:56:41;7.20;99.90
28484;DHT22;15704;48.834;8.736;2023-02-21T02:59:11;7.20;99.90
28484;DHT22;15704;48.834;8.736;2023-02-21T03:01:51;7.20;99.90
28484;DHT22;15704;48.834;8.736;2023-02-21T03:04:50;7.20;99.90
28484;DHT22;15704;48.834;8.736;2023-02-21T03:18:25;7.10;99.90
28484;DHT22;15704;48.834;8.736;2023-02-21T03:20:56;7.10;99.90
28484;DHT22;15704;48.834;8.736;2023-02-21T03:23:30;7.00;99.90
28484;DHT22;15704;48.834;8.736;2023-02-21T03:26:02;7.00;99.90
28484;DHT22;15704;48.834;8.736;2023-02-21T03:28:31;6.90;99.90
28484;DHT22;15704;48.834;8.736;2023-02-21T03:31:06;6.80;99.90
28484;DHT22;15704;48.834;8.736;2023-02-21T03:33:39;6.60;99.90
28484;DHT22;15704;48.834;8.736;2023-02-21T03:36:07;6.40;99.90
28484;DHT22;15704;48.834;8.736;2023-02-21T03:38:37;6.30;99.90
28484;DHT22;15704;48.834;8.736;2023-02-21T03:41:11;6.20;99.90
28484;DHT22;15704;48.834;8.736;2023-02-21T03:43:38;6.10;99.90
28484;DHT22;15704;48.834;8.736;2023-02-21T03:46:10;6.00;99.90
28484;DHT22;15704;48.834;8.736;2023-02-21T03:48:39;5.90;99.90
28484;DHT22;15704;48.834;8.736;2023-02-21T03:51:11;5.80;99.90
28484;DHT22;15704;48.834;8.736;2023-02-21T03:53:38;5.80;99.90
28484;DHT22;15704;48.834;8.736;2023-02-21T03:56:05;5.80;99.90
28484;DHT22;15704;48.834;8.736;2023-02-21T03:58:32;5.80;99.90
28484;DHT22;15704;48.834;8.736;2023-02-21T04:01:01;5.70;99.90
28484;DHT22;15704;48.834;8.736;2023-02-21T04:03:31;5.70;99.90
28484;DHT22;15704;48.834;8.736;2023-02-21T04:05:58;5.70;99.90
28484;DHT22;15704;48.834;8.736;2023-02-21T04:08:25;5.60;99.90
28484;DHT22;15704;48.834;8.736;2023-02-21T04:11:00;5.60;99.90
28484;DHT22;15704;48.834;8.736;2023-02-21T04:13:27;5.60;99.90
28484;DHT22;15704;48.834;8.736;2023-02-21T04:15:54;5.50;99.90
28484;DHT22;15704;48.834;8.736;2023-02-21T04:18:21;5.50;99.90
28484;DHT22;15704;48.834;8.736;2023-02-21T04:20:50;5.40;99.90
28484;DHT22;15704;48.834;8.736;2023-02-21T04:23:27;5.40;99.90
28484;DHT22;15704;48.834;8.736;2023-02-21T04:26:03;5.30;99.90
28484;DHT22;15704;48.834;8.736;2023-02-21T04:28:29;5.30;99.90
28484;DHT22;15704;48.834;8.736;2023-02-21T04:30:56;5.30;99.90
28484;DHT22;15704;48.834;8.736;2023-02-21T04:33:23;5.20;99.90
28484;DHT22;15704;48.834;8.736;2023-02-21T04:35:49;5.20;99.90
28484;DHT22;15704;48.834;8.736;2023-02-21T04:38:21;5.20;99.90
28484;DHT22;15704;48.834;8.736;2023-02-21T04:40:57;5.10;99.90
28484;DHT22;15704;48.834;8.736;2023-02-21T04:43:32;5.10;99.90
28484;DHT22;15704;48.834;8.736;2023-02-21T04:45:59;5.10;99.90
28484;DHT22;15704;48.834;8.736;2023-02-21T04:48:29;5.00;99.90
28484;DHT22;15704;48.834;8.736;2023-02-21T04:50:58;5.00;99.90
28484;DHT22;15704;48.834;8.736;2023-02-21T04:54:02;5.00;99.90
28484;DHT22;15704;48.834;8.736;2023-02-21T04:56:33;4.90;99.90
28484;DHT22;15704;48.834;8.736;2023-02-21T04:59:00;4.90;99.90
28484;DHT22;15704;48.834;8.736;2023-02-21T05:01:32;4.90;99.90
28484;DHT22;15704;48.834;8.736;2023-02-21T05:04:30;4.80;99.90
28484;DHT22;15704;48.834;8.736;2023-02-21T05:07:21;4.80;99.90
28484;DHT22;15704;48.834;8.736;2023-02-21T05:09:52;4.70;99.90
28484;DHT22;15704;48.834;8.736;2023-02-21T05:12:19;4.60;99.90
28484;DHT22;15704;48.834;8.736;2023-02-21T05:14:45;4.50;99.90
28484;DHT22;15704;48.834;8.736;2023-02-21T05:17:12;4.50;99.90
28484;DHT22;15704;48.834;8.736;2023-02-21T05:19:41;4.50;99.90
28484;DHT22;15704;48.834;8.736;2023-02-21T05:22:11;4.40;99.90
28484;DHT22;15704;48.834;8.736;2023-02-21T05:24:40;4.30;99.90
28484;DHT22;15704;48.834;8.736;2023-02-21T05:27:21;4.30;99.90
28484;DHT22;15704;48.834;8.736;2023-02-21T05:29:52;4.30;99.90
28484;DHT22;15704;48.834;8.736;2023-02-21T05:32:20;4.30;99.90
28484;DHT22;15704;48.834;8.736;2023-02-21T05:34:47;4.20;99.90
28484;DHT22;15704;48.834;8.736;2023-02-21T05:37:14;4.30;99.90
28484;DHT22;15704;48.834;8.736;2023-02-21T05:39:41;4.20;99.90
28484;DHT22;15704;48.834;8.736;2023-02-21T05:42:08;4.10;99.90
28484;DHT22;15704;48.834;8.736;2023-02-21T05:44:35;4.10;99.90
28484;DHT22;15704;48.834;8.736;2023-02-21T05:47:02;4.10;99.90
28484;DHT22;15704;48.834;8.736;2023-02-21T05:49:29;4.00;99.90
28484;DHT22;15704;48.834;8.736;2023-02-21T05:51:56;4.00;99.90
28484;DHT22;15704;48.834;8.736;2023-02-21T05:54:23;3.90;99.90
28484;DHT22;15704;48.834;8.736;2023-02-21T05:56:50;3.90;99.90
28484;DHT22;15704;48.834;8.736;2023-02-21T05:59:19;3.90;99.90
28484;DHT22;15704;48.834;8.736;2023-02-21T06:01:48;3.90;99.90
28484;DHT22;15704;48.834;8.736;2023-02-21T06:04:15;3.90;99.90
28484;DHT22;15704;48.834;8.736;2023-02-21T06:06:43;3.90;99.90
28484;DHT22;15704;48.834;8.736;2023-02-21T06:09:11;4.00;99.90
28484;DHT22;15704;48.834;8.736;2023-02-21T06:11:38;4.00;99.90
28484;DHT22;15704;48.834;8.736;2023-02-21T06:14:11;4.00;99.90
28484;DHT22;15704;48.834;8.736;2023-02-21T06:16:38;3.90;99.90
28484;DHT22;15704;48.834;8.736;2023-02-21T06:19:07;3.90;99.90
28484;DHT22;15704;48.834;8.736;2023-02-21T06:21:35;3.90;99.90
28484;DHT22;15704;48.834;8.736;2023-02-21T06:24:03;4.00;99.90
28484;DHT22;15704;48.834;8.736;2023-02-21T06:26:30;4.20;99.90
28484;DHT22;15704;48.834;8.736;2023-02-21T06:28:56;4.20;99.90
28484;DHT22;15704;48.834;8.736;2023-02-21T06:31:23;4.30;99.90
28484;DHT22;15704;48.834;8.736;2023-02-21T06:33:51;4.30;99.90
28484;DHT22;15704;48.834;8.736;2023-02-21T06:36:20;4.40;99.90
28484;DHT22;15704;48.834;8.736;2023-02-21T06:38:50;4.50;99.90
28484;DHT22;15704;48.834;8.736;2023-02-21T06:41:20;4.50;99.90
28484;DHT22;15704;48.834;8.736;2023-02-21T06:43:51;4.60;99.90
28484;DHT22;15704;48.834;8.736;2023-02-21T06:46:19;4.70;99.90
28484;DHT22;15704;48.834;8.736;2023-02-21T06:48:46;4.80;99.90
28484;DHT22;15704;48.834;8.736;2023-02-21T06:51:32;5.00;99.90
28484;DHT22;15704;48.834;8.736;2023-02-21T06:53:59;5.20;99.90
28484;DHT22;15704;48.834;8.736;2023-02-21T06:56:26;5.40;99.90
28484;DHT22;15704;48.834;8.736;2023-02-21T06:58:58;5.50;99.90
28484;DHT22;15704;48.834;8.736;2023-02-21T07:01:26;5.50;99.90
28484;DHT22;15704;48.834;8.736;2023-02-21T07:03:54;5.60;99.90
28484;DHT22;15704;48.834;8.736;2023-02-21T07:06:24;5.60;99.90
28484;DHT22;15704;48.834;8.736;2023-02-21T07:09:04;5.60;99.90
28484;DHT22;15704;48.834;8.736;2023-02-21T07:11:35;5.70;99.90
28484;DHT22;15704;48.834;8.736;2023-02-21T07:14:01;5.80;99.90
28484;DHT22;15704;48.834;8.736;2023-02-21T07:16:28;5.90;99.90
28484;DHT22;15704;48.834;8.736;2023-02-21T07:18:55;6.10;99.90
28484;DHT22;15704;48.834;8.736;2023-02-21T07:21:24;6.20;99.90
28484;DHT22;15704;48.834;8.736;2023-02-21T07:23:53;6.30;99.90
28484;DHT22;15704;48.834;8.736;2023-02-21T07:26:25;6.40;99.90
28484;DHT22;15704;48.834;8.736;2023-02-21T07:28:52;6.40;99.90
28484;DHT22;15704;48.834;8.736;2023-02-21T07:31:19;6.50;99.90
28484;DHT22;15704;48.834;8.736;2023-02-21T07:33:49;6.50;99.90
28484;DHT22;15704;48.834;8.736;2023-02-21T07:36:15;6.50;99.90
28484;DHT22;15704;48.834;8.736;2023-02-21T07:38:42;6.50;99.90
28484;DHT22;15704;48.834;8.736;2023-02-21T07:41:14;6.50;99.90
28484;DHT22;15704;48.834;8.736;2023-02-21T07:43:41;6.60;99.90
28484;DHT22;15704;48.834;8.736;2023-02-21T07:46:09;6.60;99.90
28484;DHT22;15704;48.834;8.736;2023-02-21T07:48:37;6.80;99.90
28484;DHT22;15704;48.834;8.736;2023-02-21T07:51:06;6.90;99.90
28484;DHT22;15704;48.834;8.736;2023-02-21T07:53:33;7.00;99.90
28484;DHT22;15704;48.834;8.736;2023-02-21T07:56:00;7.20;99.90
28484;DHT22;15704;48.834;8.736;2023-02-21T07:58:27;7.30;99.90
28484;DHT22;15704;48.834;8.736;2023-02-21T08:00:53;7.30;99.90
28484;DHT22;15704;48.834;8.736;2023-02-21T08:03:21;7.40;99.90
28484;DHT22;15704;48.834;8.736;2023-02-21T08:05:48;7.50;99.90
28484;DHT22;15704;48.834;8.736;2023-02-21T08:08:15;7.50;99.90
28484;DHT22;15704;48.834;8.736;2023-02-21T08:10:42;7.50;99.90
28484;DHT22;15704;48.834;8.736;2023-02-21T08:13:09;7.60;99.90
28484;DHT22;15704;48.834;8.736;2023-02-21T08:15:36;7.70;99.90
28484;DHT22;15704;48.834;8.736;2023-02-21T08:18:02;7.70;99.90
28484;DHT22;15704;48.834;8.736;2023-02-21T08:20:29;7.80;99.90
28484;DHT22;15704;48.834;8.736;2023-02-21T08:22:59;7.90;99.90
28484;DHT22;15704;48.834;8.736;2023-02-21T08:25:25;8.00;99.90
28484;DHT22;15704;48.834;8.736;2023-02-21T08:27:52;8.00;99.90
28484;DHT22;15704;48.834;8.736;2023-02-21T08:30:21;8.10;99.90
28484;DHT22;15704;48.834;8.736;2023-02-21T08:32:48;8.10;99.90
28484;DHT22;15704;48.834;8.736;2023-02-21T08:35:18;8.20;99.90
28484;DHT22;15704;48.834;8.736;2023-02-21T08:37:49;8.30;99.90
28484;DHT22;15704;48.834;8.736;2023-02-21T08:40:18;8.40;99.90
28484;DHT22;15704;48.834;8.736;2023-02-21T08:42:54;8.60;99.90
28484;DHT22;15704;48.834;8.736;2023-02-21T08:45:23;8.60;99.90
28484;DHT22;15704;48.834;8.736;2023-02-21T08:47:51;8.70;99.90
28484;DHT22;15704;48.834;8.736;2023-02-21T08:50:19;8.80;99.90
28484;DHT22;15704;48.834;8.736;2023-02-21T08:52:47;8.80;99.90
28484;DHT22;15704;48.834;8.736;2023-02-21T08:55:14;8.90;99.90
28484;DHT22;15704;48.834;8.736;2023-02-21T08:57:41;9.00;99.90
28484;DHT22;15704;48.834;8.736;2023-02-21T09:00:09;9.10;99.90
28484;DHT22;15704;48.834;8.736;2023-02-21T09:02:39;9.20;99.90
28484;DHT22;15704;48.834;8.736;2023-02-21T09:05:16;9.20;99.90
28484;DHT22;15704;48.834;8.736;2023-02-21T09:07:47;9.30;99.90
28484;DHT22;15704;48.834;8.736;2023-02-21T09:10:14;9.30;99.90
28484;DHT22;15704;48.834;8.736;2023-02-21T09:12:41;9.50;99.90
28484;DHT22;15704;48.834;8.736;2023-02-21T09:15:21;9.70;99.90
28484;DHT22;15704;48.834;8.736;2023-02-21T09:17:48;9.80;99.90
28484;DHT22;15704;48.834;8.736;2023-02-21T09:20:22;9.90;99.90
28484;DHT22;15704;48.834;8.736;2023-02-21T09:22:56;9.80;99.90
28484;DHT22;15704;48.834;8.736;2023-02-21T09:25:26;9.80;99.90
28484;DHT22;15704;48.834;8.736;2023-02-21T09:27:53;9.90;99.90
28484;DHT22;15704;48.834;8.736;2023-02-21T09:30:22;10.10;99.90
28484;DHT22;15704;48.834;8.736;2023-02-21T09:32:50;10.10;99.90
28484;DHT22;15704;48.834;8.736;2023-02-21T09:35:17;10.10;99.90
28484;DHT22;15704;48.834;8.736;2023-02-21T09:37:44;10.20;99.90
28484;DHT22;15704;48.834;8.736;2023-02-21T09:40:52;10.20;99.90
28484;DHT22;15704;48.834;8.736;2023-02-21T09:43:23;10.20;99.90
28484;DHT22;15704;48.834;8.736;2023-02-21T09:45:57;10.10;99.90
28484;DHT22;15704;48.834;8.736;2023-02-21T09:48:25;10.00;99.90
28484;DHT22;15704;48.834;8.736;2023-02-21T09:51:01;10.10;99.90
28484;DHT22;15704;48.834;8.736;2023-02-21T09:53:40;10.20;99.90
28484;DHT22;15704;48.834;8.736;2023-02-21T09:56:41;10.40;99.90
28484;DHT22;15704;48.834;8.736;2023-02-21T09:59:13;10.50;99.90
28484;DHT22;15704;48.834;8.736;2023-02-21T10:04:44;10.50;99.90
28484;DHT22;15704;48.834;8.736;2023-02-21T10:09:55;10.80;99.90
28484;DHT22;15704;48.834;8.736;2023-02-21T10:12:35;11.10;99.90
28484;DHT22;15704;48.834;8.736;2023-02-21T10:18:33;11.20;99.90
28484;DHT22;15704;48.834;8.736;2023-02-21T10:21:11;11.30;99.90
28484;DHT22;15704;48.834;8.736;2023-02-21T10:23:47;11.40;99.90
28484;DHT22;15704;48.834;8.736;2023-02-21T10:26:24;11.40;99.90
28484;DHT22;15704;48.834;8.736;2023-02-21T10:29:00;11.60;99.90
28484;DHT22;15704;48.834;8.736;2023-02-21T10:31:35;11.70;99.90
28484;DHT22;15704;48.834;8.736;2023-02-21T10:34:05;11.80;99.90
28484;DHT22;15704;48.834;8.736;2023-02-21T10:36:38;11.90;99.90
28484;DHT22;15704;48.834;8.736;2023-02-21T10:41:38;11.70;99.90
28484;DHT22;15704;48.834;8.736;2023-02-21T10:44:11;11.90;99.90
28484;DHT22;15704;48.834;8.736;2023-02-21T10:46:44;12.00;99.90
28484;DHT22;15704;48.834;8.736;2023-02-21T10:49:27;11.90;99.90
28484;DHT22;15704;48.834;8.736;2023-02-21T10:54:30;11.80;99.90
28484;DHT22;15704;48.834;8.736;2023-02-21T10:57:03;11.90;99.90
28484;DHT22;15704;48.834;8.736;2023-02-21T10:59:33;12.10;99.90
28484;DHT22;15704;48.834;8.736;2023-02-21T11:02:02;12.10;99.90
28484;DHT22;15704;48.834;8.736;2023-02-21T11:04:50;12.20;99.90
28484;DHT22;15704;48.834;8.736;2023-02-21T11:07:19;12.30;99.90
28484;DHT22;15704;48.834;8.736;2023-02-21T11:09:47;12.40;99.90
28484;DHT22;15704;48.834;8.736;2023-02-21T11:14:44;12.50;99.90
28484;DHT22;15704;48.834;8.736;2023-02-21T11:19:46;12.70;99.90
28484;DHT22;15704;48.834;8.736;2023-02-21T11:22:17;12.50;99.90
28484;DHT22;15704;48.834;8.736;2023-02-21T11:24:46;12.50;99.90
28484;DHT22;15704;48.834;8.736;2023-02-21T11:27:15;12.50;99.90
28484;DHT22;15704;48.834;8.736;2023-02-21T11:29:44;12.50;99.90
28484;DHT22;15704;48.834;8.736;2023-02-21T11:32:33;12.60;99.90
28484;DHT22;15704;48.834;8.736;2023-02-21T11:35:27;12.80;99.90
28484;DHT22;15704;48.834;8.736;2023-02-21T11:37:58;12.70;99.90
28484;DHT22;15704;48.834;8.736;2023-02-21T11:43:12;12.80;99.90
28484;DHT22;15704;48.834;8.736;2023-02-21T11:51:42;13.00;99.90
28484;DHT22;15704;48.834;8.736;2023-02-21T11:54:10;13.10;99.90
28484;DHT22;15704;48.834;8.736;2023-02-21T12:10:14;13.70;99.90
28484;DHT22;15704;48.834;8.736;2023-02-21T12:21:18;14.00;99.90
28484;DHT22;15704;48.834;8.736;2023-02-21T12:35:40;14.00;99.90
28484;DHT22;15704;48.834;8.736;2023-02-21T12:38:24;13.90;99.90
28484;DHT22;15704;48.834;8.736;2023-02-21T12:43:51;14.10;99.90
28484;DHT22;15704;48.834;8.736;2023-02-21T12:51:55;14.40;99.90
28484;DHT22;15704;48.834;8.736;2023-02-21T12:54:44;14.40;99.90
28484;DHT22;15704;48.834;8.736;2023-02-21T12:57:16;14.40;99.90
28484;DHT22;15704;48.834;8.736;2023-02-21T13:02:41;14.50;99.90
28484;DHT22;15704;48.834;8.736;2023-02-21T13:05:20;14.50;99.90
28484;DHT22;15704;48.834;8.736;2023-02-21T13:07:58;14.70;99.90
28484;DHT22;15704;48.834;8.736;2023-02-21T13:13:27;14.80;99.90
28484;DHT22;15704;48.834;8.736;2023-02-21T13:15:55;15.00;99.90
28484;DHT22;15704;48.834;8.736;2023-02-21T13:18:30;15.10;99.90
28484;DHT22;15704;48.834;8.736;2023-02-21T13:23:55;15.30;99.90
28484;DHT22;15704;48.834;8.736;2023-02-21T13:28:54;15.10;99.90
28484;DHT22;15704;48.834;8.736;2023-02-21T13:31:32;15.10;99.90
28484;DHT22;15704;48.834;8.736;2023-02-21T13:34:09;15.30;99.90
28484;DHT22;15704;48.834;8.736;2023-02-21T13:36:40;15.20;99.90
28484;DHT22;15704;48.834;8.736;2023-02-21T13:39:26;15.30;99.90
28484;DHT22;15704;48.834;8.736;2023-02-21T13:42:19;15.20;99.90
28484;DHT22;15704;48.834;8.736;2023-02-21T13:45:34;15.00;99.90
28484;DHT22;15704;48.834;8.736;2023-02-21T13:55:37;15.10;99.90
28484;DHT22;15704;48.834;8.736;2023-02-21T14:08:18;14.70;99.90
28484;DHT22;15704;48.834;8.736;2023-02-21T14:10:48;14.70;99.90
28484;DHT22;15704;48.834;8.736;2023-02-21T14:18:47;14.60;99.90
28484;DHT22;15704;48.834;8.736;2023-02-21T14:21:34;14.60;99.90
28484;DHT22;15704;48.834;8.736;2023-02-21T14:24:22;14.60;99.90
28484;DHT22;15704;48.834;8.736;2023-02-21T14:26:53;14.50;99.90
28484;DHT22;15704;48.834;8.736;2023-02-21T14:29:40;14.40;99.90
28484;DHT22;15704;48.834;8.736;2023-02-21T14:37:27;14.30;99.90
28484;DHT22;15704;48.834;8.736;2023-02-21T14:42:55;14.30;99.90
28484;DHT22;15704;48.834;8.736;2023-02-21T14:56:39;14.10;99.90
28484;DHT22;15704;48.834;8.736;2023-02-21T14:59:34;14.10;99.90
28484;DHT22;15704;48.834;8.736;2023-02-21T15:02:41;13.90;99.90
28484;DHT22;15704;48.834;8.736;2023-02-21T15:08:21;13.90;99.90
28484;DHT22;15704;48.834;8.736;2023-02-21T15:11:02;13.90;99.90
28484;DHT22;15704;48.834;8.736;2023-02-21T15:13:34;13.70;99.90
28484;DHT22;15704;48.834;8.736;2023-02-21T15:18:33;13.70;99.90
28484;DHT22;15704;48.834;8.736;2023-02-21T15:23:32;13.50;99.90
28484;DHT22;15704;48.834;8.736;2023-02-21T15:26:24;13.50;99.90
28484;DHT22;15704;48.834;8.736;2023-02-21T15:29:22;13.40;99.90
28484;DHT22;15704;48.834;8.736;2023-02-21T15:31:52;13.50;99.90
28484;DHT22;15704;48.834;8.736;2023-02-21T15:37:20;13.30;99.90
28484;DHT22;15704;48.834;8.736;2023-02-21T15:39:53;13.30;99.90
28484;DHT22;15704;48.834;8.736;2023-02-21T15:42:21;13.30;99.90
28484;DHT22;15704;48.834;8.736;2023-02-21T15:45:27;13.20;99.90
28484;DHT22;15704;48.834;8.736;2023-02-21T15:47:55;13.10;99.90
28484;DHT22;15704;48.834;8.736;2023-02-21T15:50:43;13.10;99.90
28484;DHT22;15704;48.834;8.736;2023-02-21T15:55:43;12.90;99.90
28484;DHT22;15704;48.834;8.736;2023-02-21T16:00:44;12.70;99.90
28484;DHT22;15704;48.834;8.736;2023-02-21T16:14:55;12.10;99.90
28484;DHT22;15704;48.834;8.736;2023-02-21T16:17:34;12.10;99.90
28484;DHT22;15704;48.834;8.736;2023-02-21T16:20:47;12.00;99.90
28484;DHT22;15704;48.834;8.736;2023-02-21T16:28:35;11.70;99.90
28484;DHT22;15704;48.834;8.736;2023-02-21T16:31:06;11.60;99.90
28484;DHT22;15704;48.834;8.736;2023-02-21T16:33:37;11.50;99.90
28484;DHT22;15704;48.834;8.736;2023-02-21T16:36:09;11.50;99.90
28484;DHT22;15704;48.834;8.736;2023-02-21T16:38:41;11.40;99.90
28484;DHT22;15704;48.834;8.736;2023-02-21T16:41:12;11.40;99.90
28484;DHT22;15704;48.834;8.736;2023-02-21T16:43:41;11.20;99.90
28484;DHT22;15704;48.834;8.736;2023-02-21T16:46:08;11.10;99.90
28484;DHT22;15704;48.834;8.736;2023-02-21T16:48:35;11.00;99.90
28484;DHT22;15704;48.834;8.736;2023-02-21T16:51:04;10.90;99.90
28484;DHT22;15704;48.834;8.736;2023-02-21T16:53:32;10.80;99.90
28484;DHT22;15704;48.834;8.736;2023-02-21T16:56:00;10.70;99.90
28484;DHT22;15704;48.834;8.736;2023-02-21T16:58:49;10.60;99.90
28484;DHT22;15704;48.834;8.736;2023-02-21T17:01:23;10.50;99.90
28484;DHT22;15704;48.834;8.736;2023-02-21T17:03:50;10.50;99.90
28484;DHT22;15704;48.834;8.736;2023-02-21T17:06:22;10.30;99.90
28484;DHT22;15704;48.834;8.736;2023-02-21T17:08:50;10.20;99.90
28484;DHT22;15704;48.834;8.736;2023-02-21T17:11:17;10.20;99.90
28484;DHT22;15704;48.834;8.736;2023-02-21T17:13:44;10.10;99.90
28484;DHT22;15704;48.834;8.736;2023-02-21T17:16:11;10.10;99.90
28484;DHT22;15704;48.834;8.736;2023-02-21T17:18:38;10.00;99.90
28484;DHT22;15704;48.834;8.736;2023-02-21T17:21:04;9.90;99.90
28484;DHT22;15704;48.834;8.736;2023-02-21T17:23:31;9.80;99.90
28484;DHT22;15704;48.834;8.736;2023-02-21T17:25:58;9.80;99.90
28484;DHT22;15704;48.834;8.736;2023-02-21T17:28:25;9.80;99.90
28484;DHT22;15704;48.834;8.736;2023-02-21T17:30:52;9.70;99.90
28484;DHT22;15704;48.834;8.736;2023-02-21T17:33:19;9.60;99.90
28484;DHT22;15704;48.834;8.736;2023-02-21T17:35:45;9.60;99.90
28484;DHT22;15704;48.834;8.736;2023-02-21T17:38:12;9.50;99.90
28484;DHT22;15704;48.834;8.736;2023-02-21T17:40:39;9.40;99.90
28484;DHT22;15704;48.834;8.736;2023-02-21T17:43:06;9.40;99.90
28484;DHT22;15704;48.834;8.736;2023-02-21T17:45:34;9.30;99.90
28484;DHT22;15704;48.834;8.736;2023-02-21T17:48:04;9.30;99.90
28484;DHT22;15704;48.834;8.736;2023-02-21T17:50:32;9.20;99.90
28484;DHT22;15704;48.834;8.736;2023-02-21T17:52:59;9.00;99.90
28484;DHT22;15704;48.834;8.736;2023-02-21T17:55:26;8.90;99.90
28484;DHT22;15704;48.834;8.736;2023-02-21T17:57:55;8.90;99.90
28484;DHT22;15704;48.834;8.736;2023-02-21T18:00:25;8.70;99.90
28484;DHT22;15704;48.834;8.736;2023-02-21T18:02:53;8.70;99.90
28484;DHT22;15704;48.834;8.736;2023-02-21T18:05:20;8.60;99.90
28484;DHT22;15704;48.834;8.736;2023-02-21T18:07:49;8.40;99.90
28484;DHT22;15704;48.834;8.736;2023-02-21T18:10:18;8.20;99.90
28484;DHT22;15704;48.834;8.736;2023-02-21T18:12:45;8.10;99.90
28484;DHT22;15704;48.834;8.736;2023-02-21T18:15:21;8.00;99.90
28484;DHT22;15704;48.834;8.736;2023-02-21T18:17:48;8.00;99.90
28484;DHT22;15704;48.834;8.736;2023-02-21T18:20:16;7.80;99.90
28484;DHT22;15704;48.834;8.736;2023-02-21T18:22:43;7.80;99.90
28484;DHT22;15704;48.834;8.736;2023-02-21T18:25:16;7.70;99.90
28484;DHT22;15704;48.834;8.736;2023-02-21T18:27:53;7.70;99.90
28484;DHT22;15704;48.834;8.736;2023-02-21T18:30:20;7.50;99.90
28484;DHT22;15704;48.834;8.736;2023-02-21T18:32:47;7.50;99.90
28484;DHT22;15704;48.834;8.736;2023-02-21T18:35:14;7.40;99.90
28484;DHT22;15704;48.834;8.736;2023-02-21T18:37:44;7.40;99.90
28484;DHT22;15704;48.834;8.736;2023-02-21T18:40:17;7.30;99.90
28484;DHT22;15704;48.834;8.736;2023-02-21T18:43:05;7.30;99.90
28484;DHT22;15704;48.834;8.736;2023-02-21T18:45:32;7.30;99.90
28484;DHT22;15704;48.834;8.736;2023-02-21T18:48:00;7.20;99.90
28484;DHT22;15704;48.834;8.736;2023-02-21T18:50:29;7.20;99.90
28484;DHT22;15704;48.834;8.736;2023-02-21T18:52:56;7.10;99.90
28484;DHT22;15704;48.834;8.736;2023-02-21T18:55:23;7.10;99.90
28484;DHT22;15704;48.834;8.736;2023-02-21T18:57:56;7.20;99.90
28484;DHT22;15704;48.834;8.736;2023-02-21T19:00:23;7.10;99.90
28484;DHT22;15704;48.834;8.736;2023-02-21T19:02:50;7.10;99.90
28484;DHT22;15704;48.834;8.736;2023-02-21T19:05:19;7.10;99.90
28484;DHT22;15704;48.834;8.736;2023-02-21T19:07:47;7.10;99.90
28484;DHT22;15704;48.834;8.736;2023-02-21T19:10:26;7.00;99.90
28484;DHT22;15704;48.834;8.736;2023-02-21T19:13:04;7.10;99.90
28484;DHT22;15704;48.834;8.736;2023-02-21T19:15:31;7.00;99.90
28484;DHT22;15704;48.834;8.736;2023-02-21T19:17:58;7.00;99.90
28484;DHT22;15704;48.834;8.736;2023-02-21T19:20:25;6.90;99.90
28484;DHT22;15704;48.834;8.736;2023-02-21T19:22:54;6.90;99.90
28484;DHT22;15704;48.834;8.736;2023-02-21T19:25:24;6.90;99.90
28484;DHT22;15704;48.834;8.736;2023-02-21T19:27:57;6.90;99.90
28484;DHT22;15704;48.834;8.736;2023-02-21T19:30:28;6.80;99.90
28484;DHT22;15704;48.834;8.736;2023-02-21T19:33:01;6.80;99.90
28484;DHT22;15704;48.834;8.736;2023-02-21T19:35:35;6.80;99.90
28484;DHT22;15704;48.834;8.736;2023-02-21T19:38:07;6.70;99.90